createdAt,value
2023-03-18T00:00:30.898Z,6.60
2023-03-18T00:02:59.027Z,6.70
2023-03-18T00:05:27.011Z,6.70
2023-03-18T00:07:54.811Z,6.70
2023-03-18T00:10:22.667Z,6.80
2023-03-18T00:12:50.414Z,6.90
2023-03-18T00:15:18.947Z,7.00
2023-03-18T00:17:49.291Z,7.10
2023-03-18T00:20:18.811Z,7.20
2023-03-18T00:22:46.862Z,7.40
2023-03-18T00:25:15.844Z,7.50
2023-03-18T00:27:43.661Z,7.30
2023-03-18T00:30:13.248Z,7.30
2023-03-18T00:32:42.007Z,7.30
2023-03-18T00:35:12.119Z,7.30
2023-03-18T00:37:39.928Z,7.20
2023-03-18T00:40:17.053Z,7.20
2023-03-18T00:42:50.316Z,7.10
2023-03-18T00:45:18.882Z,7.00
2023-03-18T00:47:48.344Z,7.00
2023-03-18T00:50:18.473Z,7.00
2023-03-18T00:52:46.245Z,6.80
2023-03-18T00:55:14.046Z,6.70
2023-03-18T00:57:42.213Z,6.50
2023-03-18T01:00:11.381Z,6.50
2023-03-18T01:02:39.315Z,6.40
2023-03-18T01:05:07.342Z,6.40
2023-03-18T01:07:36.486Z,6.30
2023-03-18T01:10:04.773Z,6.30
2023-03-18T01:12:33.115Z,6.30
2023-03-18T01:15:00.961Z,6.20
2023-03-18T01:17:28.780Z,6.10
2023-03-18T01:19:56.671Z,6.10
2023-03-18T01:22:24.447Z,6.00
2023-03-18T01:24:53.522Z,5.90
2023-03-18T01:27:21.435Z,5.80
2023-03-18T01:29:49.196Z,5.70
2023-03-18T01:32:17.062Z,5.70
2023-03-18T01:34:44.972Z,5.70
2023-03-18T01:37:13.671Z,5.70
2023-03-18T01:39:41.451Z,5.70
2023-03-18T01:42:11.882Z,5.70
2023-03-18T01:44:39.816Z,5.70
2023-03-18T01:47:08.073Z,5.60
2023-03-18T01:49:38.164Z,5.60
2023-03-18T01:52:09.400Z,5.70
2023-03-18T01:54:40.974Z,5.60
2023-03-18T01:57:10.367Z,5.60
2023-03-18T01:59:42.023Z,5.60
2023-03-18T02:02:11.727Z,5.50
2023-03-18T02:04:43.192Z,5.40
2023-03-18T02:07:16.514Z,5.40
2023-03-18T02:09:45.053Z,5.40
2023-03-18T02:12:16.050Z,5.40
2023-03-18T02:14:44.735Z,5.30
2023-03-18T02:17:15.223Z,5.30
2023-03-18T02:19:59.056Z,5.30
2023-03-18T02:22:30.931Z,5.20
2023-03-18T02:25:10.926Z,5.10
2023-03-18T02:27:41.903Z,4.90
2023-03-18T02:30:14.874Z,4.90
2023-03-18T02:32:43.775Z,4.80
2023-03-18T02:35:12.992Z,4.80
2023-03-18T02:37:41.269Z,4.80
2023-03-18T02:40:17.031Z,4.70
2023-03-18T02:42:47.716Z,4.70
2023-03-18T02:45:33.840Z,4.70
2023-03-18T02:48:06.994Z,4.70
2023-03-18T02:50:35.760Z,4.70
2023-03-18T02:53:06.057Z,4.70
2023-03-18T02:55:33.814Z,4.70
2023-03-18T02:58:02.903Z,4.80
2023-03-18T03:00:30.955Z,4.80
2023-03-18T03:02:58.942Z,4.70
2023-03-18T03:05:27.406Z,4.70
2023-03-18T03:07:55.176Z,4.70
2023-03-18T03:10:22.988Z,4.60
2023-03-18T03:12:51.376Z,4.60
2023-03-18T03:15:20.742Z,4.60
2023-03-18T03:17:49.348Z,4.60
2023-03-18T03:20:18.095Z,4.60
2023-03-18T03:22:46.317Z,4.60
2023-03-18T03:25:14.844Z,4.60
2023-03-18T03:27:43.565Z,4.70
2023-03-18T03:30:13.681Z,4.60
2023-03-18T03:32:42.993Z,4.70
2023-03-18T03:35:14.093Z,4.70
2023-03-18T03:37:42.060Z,4.70
2023-03-18T03:40:11.763Z,4.70
2023-03-18T03:42:40.232Z,4.70
2023-03-18T03:45:10.422Z,4.80
2023-03-18T03:47:38.254Z,4.80
2023-03-18T03:50:08.880Z,4.90
2023-03-18T03:52:37.237Z,4.90
2023-03-18T03:55:05.977Z,4.90
2023-03-18T03:57:35.394Z,4.80
2023-03-18T04:00:03.374Z,4.80
2023-03-18T04:02:31.773Z,4.80
2023-03-18T04:05:00.237Z,4.80
2023-03-18T04:07:29.336Z,4.70
2023-03-18T04:09:57.105Z,4.70
2023-03-18T04:12:24.937Z,4.70
2023-03-18T04:14:52.776Z,4.60
2023-03-18T04:17:20.553Z,4.60
2023-03-18T04:19:48.403Z,4.60
2023-03-18T04:22:16.564Z,4.50
2023-03-18T04:24:45.848Z,4.50
2023-03-18T04:27:13.645Z,4.50
2023-03-18T04:29:41.793Z,4.50
2023-03-18T04:32:09.522Z,4.50
2023-03-18T04:34:38.391Z,4.50
2023-03-18T04:37:06.239Z,4.40
2023-03-18T04:39:33.999Z,4.40
2023-03-18T04:42:03.183Z,4.40
2023-03-18T04:44:30.928Z,4.40
2023-03-18T04:46:59.252Z,4.30
2023-03-18T04:49:27.076Z,4.30
2023-03-18T04:51:54.836Z,4.30
2023-03-18T04:54:22.634Z,4.30
2023-03-18T04:56:50.646Z,4.20
2023-03-18T04:59:19.724Z,4.20
2023-03-18T05:01:47.458Z,4.20
2023-03-18T05:04:15.529Z,4.20
2023-03-18T05:06:43.526Z,4.10
2023-03-18T05:09:13.092Z,4.10
2023-03-18T05:11:40.849Z,4.10
2023-03-18T05:14:08.590Z,4.20
2023-03-18T05:16:38.104Z,4.10
2023-03-18T05:19:06.057Z,4.10
2023-03-18T05:21:33.811Z,4.10
2023-03-18T05:24:01.679Z,4.10
2023-03-18T05:26:29.531Z,4.10
2023-03-18T05:28:57.334Z,4.10
2023-03-18T05:31:25.658Z,4.20
2023-03-18T05:33:54.787Z,4.20
2023-03-18T05:36:23.190Z,4.20
2023-03-18T05:38:50.935Z,4.20
2023-03-18T05:41:19.012Z,4.20
2023-03-18T05:43:47.439Z,4.30
2023-03-18T05:46:15.234Z,4.30
2023-03-18T05:48:43.443Z,4.30
2023-03-18T05:51:12.598Z,4.30
2023-03-18T05:53:40.980Z,4.30
2023-03-18T05:56:08.974Z,4.30
2023-03-18T05:58:36.726Z,4.20
2023-03-18T06:01:04.635Z,4.40
2023-03-18T06:03:32.481Z,4.40
2023-03-18T06:06:00.713Z,4.50
2023-03-18T06:08:30.503Z,4.60
2023-03-18T06:10:58.744Z,4.60
2023-03-18T06:13:26.512Z,4.70
2023-03-18T06:15:58.464Z,4.80
2023-03-18T06:18:27.717Z,4.90
2023-03-18T06:20:55.950Z,4.90
2023-03-18T06:23:24.135Z,4.90
2023-03-18T06:25:53.364Z,4.90
2023-03-18T06:28:21.184Z,4.90
2023-03-18T06:30:48.934Z,4.90
2023-03-18T06:33:16.701Z,4.90
2023-03-18T06:35:44.699Z,5.00
2023-03-18T06:38:14.399Z,5.00
2023-03-18T06:40:42.165Z,5.00
2023-03-18T06:43:12.319Z,5.20
2023-03-18T06:45:40.345Z,5.20
2023-03-18T06:48:09.414Z,5.40
2023-03-18T06:50:39.500Z,5.40
2023-03-18T06:53:07.386Z,5.60
2023-03-18T06:55:35.760Z,5.60
2023-03-18T06:58:03.667Z,5.70
2023-03-18T07:00:33.926Z,5.80
2023-03-18T07:03:02.255Z,5.80
2023-03-18T07:05:30.688Z,5.90
2023-03-18T07:07:58.681Z,6.00
2023-03-18T07:10:29.020Z,6.00
2023-03-18T07:12:57.080Z,6.10
2023-03-18T07:15:26.335Z,6.20
2023-03-18T07:17:55.675Z,6.20
2023-03-18T07:20:23.920Z,6.30
2023-03-18T07:22:52.389Z,6.30
2023-03-18T07:25:22.549Z,6.40
2023-03-18T07:27:50.760Z,6.40
2023-03-18T07:30:19.392Z,6.50
2023-03-18T07:32:47.165Z,6.50
2023-03-18T07:35:16.842Z,6.60
2023-03-18T07:37:44.861Z,6.80
2023-03-18T07:40:13.869Z,6.90
2023-03-18T07:42:41.670Z,7.00
2023-03-18T07:45:11.212Z,7.10
2023-03-18T07:47:39.616Z,7.30
2023-03-18T07:50:08.595Z,7.40
2023-03-18T07:52:38.172Z,7.60
2023-03-18T07:55:06.569Z,7.80
2023-03-18T07:57:34.346Z,7.90
2023-03-18T08:00:02.142Z,8.10
2023-03-18T08:02:29.955Z,8.30
2023-03-18T08:04:57.752Z,8.50
2023-03-18T08:07:25.819Z,8.70
2023-03-18T08:09:54.941Z,8.90
2023-03-18T08:12:22.734Z,9.00
2023-03-18T08:14:50.493Z,9.10
2023-03-18T08:17:18.585Z,9.40
2023-03-18T08:19:46.957Z,9.50
2023-03-18T08:22:15.086Z,9.70
2023-03-18T08:24:45.161Z,9.90
2023-03-18T08:27:14.604Z,10.10
2023-03-18T08:29:42.445Z,10.20
2023-03-18T08:32:11.217Z,10.40
2023-03-18T08:34:38.988Z,10.60
2023-03-18T08:37:07.379Z,10.90
2023-03-18T08:39:35.157Z,11.20
2023-03-18T08:42:04.263Z,11.40
2023-03-18T08:44:33.583Z,11.50
2023-03-18T08:47:01.329Z,11.80
2023-03-18T08:49:29.458Z,12.20
2023-03-18T08:51:57.311Z,12.40
2023-03-18T08:54:25.156Z,12.60
2023-03-18T08:56:55.087Z,12.80
2023-03-18T08:59:22.904Z,12.90
2023-03-18T09:01:53.130Z,13.00
2023-03-18T09:04:21.081Z,13.30
2023-03-18T09:06:49.922Z,13.50
2023-03-18T09:09:17.934Z,13.80
2023-03-18T09:11:47.716Z,14.00
2023-03-18T09:14:15.833Z,14.20
2023-03-18T09:16:43.655Z,14.60
2023-03-18T09:19:12.786Z,15.00
2023-03-18T09:21:40.534Z,15.30
2023-03-18T09:24:09.035Z,15.70
2023-03-18T09:26:38.559Z,16.00
2023-03-18T09:29:06.767Z,16.40
2023-03-18T09:31:34.619Z,16.70
2023-03-18T09:34:02.492Z,17.00
2023-03-18T09:36:31.842Z,17.30
2023-03-18T09:39:00.131Z,17.50
2023-03-18T09:41:39.077Z,17.70
2023-03-18T09:44:14.624Z,17.80
2023-03-18T09:46:55.156Z,17.90
2023-03-18T09:49:42.589Z,18.10
2023-03-18T09:52:20.527Z,18.40
2023-03-18T09:54:54.915Z,18.60
2023-03-18T09:57:28.241Z,18.80
2023-03-18T10:00:02.008Z,19.00
2023-03-18T10:02:34.883Z,19.20
2023-03-18T10:05:06.765Z,19.40
2023-03-18T10:07:41.394Z,19.50
2023-03-18T10:10:12.721Z,19.70
2023-03-18T10:12:45.144Z,19.90
2023-03-18T10:15:18.647Z,20.00
2023-03-18T10:17:52.357Z,20.00
2023-03-18T10:20:26.668Z,20.10
2023-03-18T10:23:03.260Z,20.20
2023-03-18T10:25:37.378Z,20.40
2023-03-18T10:28:42.385Z,20.60
2023-03-18T10:31:29.542Z,20.70
2023-03-18T10:34:00.387Z,20.80
2023-03-18T10:36:37.546Z,20.80
2023-03-18T10:39:14.079Z,20.90
2023-03-18T10:41:43.342Z,20.90
2023-03-18T10:44:20.857Z,20.90
2023-03-18T10:46:53.315Z,20.80
2023-03-18T10:49:25.132Z,20.90
2023-03-18T10:51:56.155Z,21.00
2023-03-18T10:54:31.324Z,21.00
2023-03-18T10:56:59.244Z,20.90
2023-03-18T10:59:29.013Z,20.90
2023-03-18T11:02:01.944Z,21.00
2023-03-18T11:04:31.906Z,21.20
2023-03-18T11:07:02.737Z,21.30
2023-03-18T11:09:36.047Z,21.40
2023-03-18T11:12:06.452Z,21.40
2023-03-18T11:14:37.473Z,21.40
2023-03-18T11:17:08.007Z,21.50
2023-03-18T11:19:39.671Z,21.60
2023-03-18T11:22:19.842Z,21.70
2023-03-18T11:25:02.869Z,21.80
2023-03-18T11:27:38.435Z,22.00
2023-03-18T11:30:33.510Z,21.80
2023-03-18T11:33:06.932Z,21.90
2023-03-18T11:35:40.296Z,22.10
2023-03-18T11:38:14.858Z,22.20
2023-03-18T11:40:44.547Z,22.30
2023-03-18T11:43:18.747Z,22.40
2023-03-18T11:45:55.917Z,22.40
2023-03-18T11:48:31.252Z,22.30
2023-03-18T11:51:17.399Z,22.40
2023-03-18T11:53:58.094Z,22.30
2023-03-18T11:56:32.320Z,22.10
2023-03-18T11:59:18.609Z,22.10
2023-03-18T12:01:57.593Z,22.10
2023-03-18T12:05:10.772Z,22.10
2023-03-18T12:07:52.947Z,22.20
2023-03-18T12:10:26.158Z,22.30
2023-03-18T12:13:09.420Z,22.30
2023-03-18T12:15:47.061Z,22.30
2023-03-18T12:18:40.561Z,22.00
2023-03-18T12:21:35.662Z,22.00
2023-03-18T12:24:15.152Z,22.00
2023-03-18T12:26:57.582Z,22.10
2023-03-18T12:29:50.339Z,22.10
2023-03-18T12:32:27.121Z,22.10
2023-03-18T12:35:06.413Z,22.10
2023-03-18T12:37:42.848Z,22.00
2023-03-18T12:40:38.433Z,22.00
2023-03-18T12:43:27.058Z,22.10
2023-03-18T12:46:02.404Z,22.10
2023-03-18T12:48:43.557Z,21.90
2023-03-18T12:51:16.157Z,21.90
2023-03-18T12:53:47.377Z,21.60
2023-03-18T12:56:19.453Z,21.60
2023-03-18T12:58:51.329Z,21.70
2023-03-18T13:01:24.990Z,21.80
2023-03-18T13:03:57.072Z,21.90
2023-03-18T13:06:30.653Z,21.80
2023-03-18T13:09:06.619Z,21.90
2023-03-18T13:12:05.585Z,21.90
2023-03-18T13:14:44.607Z,22.00
2023-03-18T13:17:17.439Z,22.00
2023-03-18T13:19:45.649Z,22.00
2023-03-18T13:22:53.332Z,22.00
2023-03-18T13:25:29.469Z,22.10
2023-03-18T13:28:11.057Z,22.10
2023-03-18T13:30:53.859Z,22.10
2023-03-18T13:33:53.230Z,22.30
2023-03-18T13:36:36.220Z,22.30
2023-03-18T13:39:21.047Z,22.30
2023-03-18T13:42:16.771Z,22.30
2023-03-18T13:44:48.059Z,22.30
2023-03-18T13:47:18.618Z,22.30
2023-03-18T13:49:48.210Z,22.20
2023-03-18T13:52:30.445Z,22.10
2023-03-18T13:55:02.258Z,22.00
2023-03-18T13:57:47.729Z,21.90
2023-03-18T14:00:30.452Z,21.80
2023-03-18T14:03:23.042Z,21.80
2023-03-18T14:05:54.062Z,21.70
2023-03-18T14:08:50.514Z,21.60
2023-03-18T14:11:49.881Z,21.50
2023-03-18T14:14:56.499Z,21.40
2023-03-18T14:17:32.951Z,21.40
2023-03-18T14:20:10.090Z,21.30
2023-03-18T14:22:40.202Z,21.10
2023-03-18T14:25:24.363Z,21.00
2023-03-18T14:27:54.763Z,20.80
2023-03-18T14:30:48.049Z,20.60
2023-03-18T14:33:34.338Z,20.50
2023-03-18T14:36:07.498Z,20.30
2023-03-18T14:38:46.456Z,20.00
2023-03-18T14:41:25.872Z,19.80
2023-03-18T14:44:04.022Z,19.60
2023-03-18T14:46:37.092Z,19.50
2023-03-18T14:49:41.505Z,19.40
2023-03-18T14:52:23.457Z,19.30
2023-03-18T14:54:55.159Z,19.20
2023-03-18T14:57:23.702Z,19.20
2023-03-18T14:59:51.646Z,19.10
2023-03-18T15:02:25.817Z,19.10
2023-03-18T15:04:55.968Z,19.10
2023-03-18T15:07:35.671Z,19.00
2023-03-18T15:10:10.609Z,18.80
2023-03-18T15:12:38.694Z,18.80
2023-03-18T15:15:09.580Z,18.70
2023-03-18T15:17:37.903Z,18.70
2023-03-18T15:20:06.661Z,18.60
2023-03-18T15:22:35.550Z,18.50
2023-03-18T15:25:08.510Z,18.40
2023-03-18T15:27:37.283Z,18.30
2023-03-18T15:30:11.528Z,18.20
2023-03-18T15:32:45.860Z,18.10
2023-03-18T15:35:18.403Z,18.10
2023-03-18T15:37:47.964Z,18.10
2023-03-18T15:40:30.785Z,17.90
2023-03-18T15:43:04.092Z,17.90
2023-03-18T15:45:32.961Z,17.80
2023-03-18T15:48:08.171Z,17.70
2023-03-18T15:50:37.168Z,17.70
2023-03-18T15:53:16.731Z,17.70
2023-03-18T15:55:50.333Z,17.60
2023-03-18T15:58:24.185Z,17.60
2023-03-18T16:00:54.101Z,17.50
2023-03-18T16:03:24.071Z,17.50
2023-03-18T16:05:52.706Z,17.40
2023-03-18T16:08:21.934Z,17.40
2023-03-18T16:10:53.451Z,17.30
2023-03-18T16:13:24.419Z,17.30
2023-03-18T16:15:53.083Z,17.20
2023-03-18T16:18:21.735Z,17.10
2023-03-18T16:20:51.026Z,17.10
2023-03-18T16:23:19.189Z,16.90
2023-03-18T16:25:49.233Z,16.70
2023-03-18T16:28:21.232Z,16.50
2023-03-18T16:30:51.954Z,16.30
2023-03-18T16:33:20.887Z,16.20
2023-03-18T16:35:54.845Z,16.10
2023-03-18T16:38:22.701Z,15.90
2023-03-18T16:40:52.631Z,15.80
2023-03-18T16:43:26.829Z,15.70
2023-03-18T16:45:55.514Z,15.70
2023-03-18T16:48:23.898Z,15.60
2023-03-18T16:50:52.645Z,15.60
2023-03-18T16:53:23.284Z,15.60
2023-03-18T16:55:53.702Z,15.60
2023-03-18T16:58:27.976Z,15.60
2023-03-18T17:00:56.968Z,15.60
2023-03-18T17:03:24.721Z,15.60
2023-03-18T17:05:52.768Z,15.60
2023-03-18T17:08:21.919Z,15.60
2023-03-18T17:10:52.122Z,15.70
2023-03-18T17:13:24.594Z,15.60
2023-03-18T17:15:52.980Z,15.50
2023-03-18T17:18:22.744Z,15.50
2023-03-18T17:20:51.715Z,15.40
2023-03-18T17:23:21.495Z,15.30
2023-03-18T17:25:51.797Z,15.20
2023-03-18T17:28:27.789Z,15.10
2023-03-18T17:30:56.262Z,15.00
2023-03-18T17:33:27.050Z,15.00
2023-03-18T17:35:56.351Z,14.80
2023-03-18T17:38:24.153Z,14.60
2023-03-18T17:40:52.323Z,14.50
2023-03-18T17:43:27.415Z,14.30
2023-03-18T17:45:56.465Z,14.20
2023-03-18T17:48:25.588Z,14.20
2023-03-18T17:50:55.479Z,14.10
2023-03-18T17:53:26.959Z,14.00
2023-03-18T17:55:55.843Z,14.00
2023-03-18T17:58:28.789Z,14.00
2023-03-18T18:01:02.204Z,13.90
2023-03-18T18:03:31.300Z,13.90
2023-03-18T18:06:00.185Z,13.90
2023-03-18T18:08:28.419Z,13.90
2023-03-18T18:11:04.148Z,13.80
2023-03-18T18:13:33.600Z,13.80
2023-03-18T18:16:01.815Z,13.70
2023-03-18T18:18:29.811Z,13.70
2023-03-18T18:20:59.070Z,13.60
2023-03-18T18:23:30.930Z,13.50
2023-03-18T18:26:00.586Z,13.40
2023-03-18T18:28:35.673Z,13.40
2023-03-18T18:31:05.302Z,13.40
2023-03-18T18:33:34.371Z,13.30
2023-03-18T18:36:02.623Z,13.20
2023-03-18T18:38:30.731Z,13.20
2023-03-18T18:41:00.674Z,13.10
2023-03-18T18:43:28.760Z,13.00
2023-03-18T18:45:58.852Z,13.00
2023-03-18T18:48:30.704Z,12.90
2023-03-18T18:50:59.410Z,12.90
2023-03-18T18:53:28.872Z,12.80
2023-03-18T18:55:58.948Z,12.80
2023-03-18T18:58:29.672Z,12.70
2023-03-18T19:00:59.732Z,12.60
2023-03-18T19:03:31.376Z,12.60
2023-03-18T19:06:01.288Z,12.40
2023-03-18T19:08:31.532Z,12.30
2023-03-18T19:11:00.655Z,12.10
2023-03-18T19:13:30.304Z,11.90
2023-03-18T19:16:01.849Z,11.60
2023-03-18T19:18:35.485Z,11.50
2023-03-18T19:21:03.249Z,11.30
2023-03-18T19:23:33.056Z,11.30
2023-03-18T19:26:02.022Z,11.20
2023-03-18T19:28:58.534Z,11.20
2023-03-18T19:31:32.096Z,11.20
2023-03-18T19:34:02.035Z,11.20
2023-03-18T19:36:32.383Z,11.20
2023-03-18T19:39:01.500Z,11.20
2023-03-18T19:41:30.185Z,11.20
2023-03-18T19:44:01.814Z,11.30
2023-03-18T19:46:35.898Z,11.30
2023-03-18T19:49:03.721Z,11.30
2023-03-18T19:51:31.585Z,11.40
2023-03-18T19:53:59.556Z,11.40
2023-03-18T19:56:29.525Z,11.40
2023-03-18T19:58:58.983Z,11.50
2023-03-18T20:01:29.075Z,11.50
2023-03-18T20:03:59.257Z,11.60
2023-03-18T20:06:27.486Z,11.60
2023-03-18T20:08:55.542Z,11.50
2023-03-18T20:11:23.566Z,11.40
2023-03-18T20:13:51.362Z,11.30
2023-03-18T20:16:19.714Z,11.20
2023-03-18T20:18:47.458Z,11.20
2023-03-18T20:21:22.831Z,11.10
2023-03-18T20:23:52.400Z,11.10
2023-03-18T20:26:20.281Z,10.90
2023-03-18T20:28:51.332Z,10.90
2023-03-18T20:31:19.154Z,10.80
2023-03-18T20:33:46.908Z,10.80
2023-03-18T20:36:18.556Z,10.70
2023-03-18T20:38:48.948Z,10.70
2023-03-18T20:41:17.699Z,10.60
2023-03-18T20:43:47.635Z,10.50
2023-03-18T20:46:15.857Z,10.50
2023-03-18T20:48:44.717Z,10.40
2023-03-18T20:51:22.015Z,10.30
2023-03-18T20:53:50.223Z,10.10
2023-03-18T20:56:19.291Z,10.00
2023-03-18T20:58:47.058Z,9.90
2023-03-18T21:01:14.988Z,9.80
2023-03-18T21:03:43.476Z,9.80
2023-03-18T21:06:14.519Z,9.80
2023-03-18T21:08:44.375Z,9.80
2023-03-18T21:11:22.480Z,9.70
2023-03-18T21:13:50.925Z,9.60
2023-03-18T21:16:19.907Z,9.60
2023-03-18T21:18:49.681Z,9.60
2023-03-18T21:21:23.146Z,9.60
2023-03-18T21:23:53.078Z,9.50
2023-03-18T21:26:21.614Z,9.50
2023-03-18T21:28:49.376Z,9.40
2023-03-18T21:31:24.583Z,9.30
2023-03-18T21:33:53.355Z,9.30
2023-03-18T21:36:21.608Z,9.10
2023-03-18T21:38:49.572Z,9.10
2023-03-18T21:41:21.973Z,9.10
2023-03-18T21:43:50.865Z,8.90
2023-03-18T21:46:20.533Z,8.90
2023-03-18T21:48:48.339Z,8.90
2023-03-18T21:51:37.514Z,8.80
2023-03-18T21:54:05.807Z,8.70
2023-03-18T21:56:35.199Z,8.70
2023-03-18T21:59:02.992Z,8.60
2023-03-18T22:01:32.446Z,8.60
2023-03-18T22:04:00.560Z,8.70
2023-03-18T22:06:28.382Z,8.70
2023-03-18T22:08:57.135Z,8.70
2023-03-18T22:11:24.911Z,8.80
2023-03-18T22:13:54.343Z,8.80
2023-03-18T22:16:22.668Z,8.80
2023-03-18T22:18:51.103Z,8.90
2023-03-18T22:21:23.844Z,8.80
2023-03-18T22:23:52.033Z,8.90
2023-03-18T22:26:21.433Z,8.80
2023-03-18T22:28:50.403Z,8.70
2023-03-18T22:31:21.647Z,8.60
2023-03-18T22:33:49.628Z,8.60
2023-03-18T22:36:18.890Z,8.60
2023-03-18T22:38:47.114Z,8.60
2023-03-18T22:41:20.362Z,8.50
2023-03-18T22:43:48.621Z,8.50
2023-03-18T22:46:16.594Z,8.40
2023-03-18T22:48:45.901Z,8.40
2023-03-18T22:51:22.852Z,8.30
2023-03-18T22:53:52.980Z,8.30
2023-03-18T22:56:22.138Z,8.30
2023-03-18T22:58:50.299Z,8.30
2023-03-18T23:01:19.913Z,8.40
2023-03-18T23:03:49.279Z,8.30
2023-03-18T23:06:19.770Z,8.40
2023-03-18T23:08:48.161Z,8.30
2023-03-18T23:11:17.208Z,8.20
2023-03-18T23:13:46.122Z,8.10
2023-03-18T23:16:16.638Z,8.00
2023-03-18T23:18:44.965Z,7.90
2023-03-18T23:21:17.568Z,7.80
2023-03-18T23:23:45.626Z,7.80
2023-03-18T23:26:13.731Z,7.90
2023-03-18T23:28:44.966Z,7.70
2023-03-18T23:31:13.244Z,7.70
2023-03-18T23:33:41.090Z,7.70
2023-03-18T23:36:09.592Z,7.70
2023-03-18T23:38:38.822Z,7.80
2023-03-18T23:41:07.065Z,7.70
2023-03-18T23:43:34.970Z,7.70
2023-03-18T23:46:03.590Z,7.70
2023-03-18T23:48:32.382Z,7.80
2023-03-18T23:51:00.568Z,7.80
2023-03-18T23:53:28.473Z,7.80
2023-03-18T23:55:57.578Z,7.90
2023-03-18T23:58:25.451Z,7.90
